Time;durP1;ratioP1;P1;durP2;ratioP2;P2;SDS_P1;SDS_P2;PMS_P1;PMS_P2;Temp;Humidity;BMP_temperature;BMP_pressure;BME280_temperature;BME280_humidity;BME280_pressure;Samples;Min_cycle;Max_cycle;Signal;HPM_P1;HPM_P2
2023/12/15 00:01:27;;;;;;;36.85;16.73;;;7.30;99.90;;;;;;5094803;28;20028;-65
2023/12/15 00:03:53;;;;;;;26.20;15.77;;;7.40;99.90;;;;;;5077511;28;20037;-65
2023/12/15 00:06:18;;;;;;;28.58;16.23;;;7.40;99.90;;;;;;5078062;28;20277;-65
2023/12/15 00:08:44;;;;;;;29.75;16.52;;;7.50;99.90;;;;;;5078271;28;20024;-64
2023/12/15 00:11:10;;;;;;;27.88;15.93;;;7.50;99.90;;;;;;5078160;28;20111;-65
2023/12/15 00:13:36;;;;;;;29.10;16.10;;;7.50;99.90;;;;;;5078286;28;20024;-65
2023/12/15 00:16:02;;;;;;;30.75;15.48;;;7.50;99.90;;;;;;5078054;28;20033;-65
2023/12/15 00:18:28;;;;;;;29.83;16.40;;;7.50;99.90;;;;;;5077909;28;20090;-65
2023/12/15 00:20:54;;;;;;;30.73;16.80;;;7.60;99.90;;;;;;5077161;28;20040;-64
2023/12/15 00:23:20;;;;;;;31.13;16.88;;;7.50;99.90;;;;;;5077897;28;20024;-65
2023/12/15 00:25:46;;;;;;;27.05;16.17;;;7.40;99.90;;;;;;5077882;28;20056;-65
2023/12/15 00:28:12;;;;;;;27.42;15.90;;;7.50;99.90;;;;;;5093758;28;20446;-65
2023/12/15 00:30:38;;;;;;;29.00;16.25;;;7.60;99.90;;;;;;5077733;28;20032;-66
2023/12/15 00:33:04;;;;;;;29.27;15.95;;;7.70;99.90;;;;;;5077676;28;20072;-64
2023/12/15 00:35:29;;;;;;;29.38;16.63;;;7.70;99.90;;;;;;5077627;28;20033;-65
2023/12/15 00:37:55;;;;;;;33.97;17.38;;;7.70;99.90;;;;;;5077530;28;20047;-65
2023/12/15 00:40:22;;;;;;;28.50;15.40;;;7.60;99.90;;;;;;5077495;28;20029;-65
2023/12/15 00:42:48;;;;;;;29.48;16.17;;;7.50;99.90;;;;;;5076769;28;20129;-65
2023/12/15 00:45:14;;;;;;;31.17;16.40;;;7.50;99.90;;;;;;5076662;28;20348;-65
2023/12/15 00:47:40;;;;;;;33.92;17.50;;;7.50;99.90;;;;;;5077397;28;20454;-65
2023/12/15 00:50:07;;;;;;;30.55;17.02;;;7.50;99.90;;;;;;5077374;28;20116;-65
2023/12/15 00:52:33;;;;;;;33.65;17.13;;;7.50;99.90;;;;;;5077421;28;20040;-65
2023/12/15 00:54:58;;;;;;;30.55;16.65;;;7.70;99.90;;;;;;5077446;28;20074;-65
2023/12/15 00:57:24;;;;;;;28.67;17.05;;;7.70;99.90;;;;;;5077295;28;20323;-66
2023/12/15 00:59:50;;;;;;;33.53;18.10;;;7.70;99.90;;;;;;5077269;28;20028;-66
2023/12/15 01:02:16;;;;;;;33.35;18.27;;;7.70;99.90;;;;;;5077245;28;20030;-65
2023/12/15 01:04:41;;;;;;;33.75;17.23;;;7.70;99.90;;;;;;5077233;28;20028;-65
2023/12/15 01:07:07;;;;;;;31.73;17.48;;;7.80;99.90;;;;;;5077263;28;20021;-67
2023/12/15 01:09:33;;;;;;;31.23;17.10;;;7.90;99.90;;;;;;5093277;28;20032;-66
2023/12/15 01:11:59;;;;;;;30.33;16.73;;;7.90;99.90;;;;;;5077127;28;20024;-66
2023/12/15 01:14:25;;;;;;;26.48;16.10;;;8.00;99.90;;;;;;5093263;28;20059;-66
2023/12/15 01:16:51;;;;;;;30.48;17.08;;;8.10;99.90;;;;;;5077108;28;20120;-66
2023/12/15 01:19:19;;;;;;;27.77;17.13;;;8.20;99.90;;;;;;5076349;28;20043;-66
2023/12/15 01:21:45;;;;;;;30.08;16.67;;;8.20;99.90;;;;;;5077132;28;20103;-66
2023/12/15 01:24:12;;;;;;;30.67;17.63;;;8.20;99.90;;;;;;5077004;28;20107;-67
2023/12/15 01:26:38;;;;;;;32.67;17.08;;;8.10;99.90;;;;;;5077109;28;20430;-65
2023/12/15 01:29:04;;;;;;;29.55;17.08;;;8.00;99.90;;;;;;5076730;28;20040;-67
2023/12/15 01:31:31;;;;;;;32.80;16.85;;;7.90;99.90;;;;;;5076216;28;20021;-67
2023/12/15 01:33:57;;;;;;;31.08;17.30;;;7.90;99.90;;;;;;5076926;28;20033;-66
2023/12/15 01:36:23;;;;;;;38.00;17.48;;;8.00;99.90;;;;;;5076930;28;20021;-67
2023/12/15 01:38:48;;;;;;;30.25;17.70;;;8.00;99.90;;;;;;5092961;28;20105;-66
2023/12/15 01:41:14;;;;;;;33.30;16.58;;;8.10;99.90;;;;;;5076768;28;20098;-67
2023/12/15 01:43:40;;;;;;;34.78;17.33;;;8.10;99.90;;;;;;5076735;28;20059;-66
2023/12/15 01:46:06;;;;;;;28.67;16.60;;;8.10;99.90;;;;;;5076858;28;20419;-66
2023/12/15 01:48:32;;;;;;;32.10;17.48;;;8.00;99.90;;;;;;5076960;28;20066;-66
2023/12/15 01:50:58;;;;;;;33.03;17.55;;;7.90;99.90;;;;;;5076770;28;20098;-66
2023/12/15 01:53:24;;;;;;;31.77;19.05;;;7.90;99.90;;;;;;5076829;28;20094;-65
2023/12/15 01:55:49;;;;;;;32.53;18.27;;;7.90;99.90;;;;;;5076711;28;20392;-66
2023/12/15 01:58:15;;;;;;;36.33;18.20;;;7.90;99.90;;;;;;5076618;28;20037;-66
2023/12/15 02:00:41;;;;;;;34.50;18.70;;;7.90;99.90;;;;;;5076554;28;20296;-66
2023/12/15 02:03:07;;;;;;;36.35;18.75;;;7.90;99.90;;;;;;5076611;28;20116;-66
2023/12/15 02:05:33;;;;;;;38.92;18.98;;;8.00;99.90;;;;;;5076637;28;20029;-66
2023/12/15 02:07:59;;;;;;;37.00;19.23;;;8.00;99.90;;;;;;5076558;28;20039;-66
2023/12/15 02:10:25;;;;;;;37.17;18.60;;;7.90;99.90;;;;;;5076515;28;20024;-65
2023/12/15 02:12:51;;;;;;;38.63;19.23;;;7.90;99.90;;;;;;5076532;28;20025;-66
2023/12/15 02:15:17;;;;;;;38.35;19.30;;;8.00;99.90;;;;;;5076495;28;20040;-66
2023/12/15 02:17:43;;;;;;;36.42;20.00;;;8.00;99.90;;;;;;5076508;28;20043;-66
2023/12/15 02:20:09;;;;;;;38.58;20.73;;;8.00;99.90;;;;;;5076353;28;20040;-67
2023/12/15 02:22:35;;;;;;;41.72;20.48;;;8.00;99.90;;;;;;5076451;28;20032;-65
2023/12/15 02:25:01;;;;;;;39.17;20.10;;;8.00;99.90;;;;;;5076344;28;20029;-66
2023/12/15 02:27:27;;;;;;;41.70;18.95;;;8.00;99.90;;;;;;5076279;28;20025;-66
2023/12/15 02:29:52;;;;;;;41.00;21.02;;;8.20;99.90;;;;;;5092279;28;20087;-66
2023/12/15 02:32:18;;;;;;;38.28;19.77;;;8.10;99.90;;;;;;5078954;28;20041;-65
2023/12/15 02:34:44;;;;;;;36.53;19.52;;;8.10;99.90;;;;;;5096376;28;20024;-66
2023/12/15 02:37:10;;;;;;;41.35;20.50;;;8.20;99.90;;;;;;5079995;28;20060;-66
2023/12/15 02:39:38;;;;;;;41.55;20.75;;;8.20;99.90;;;;;;5096163;28;20032;-66
2023/12/15 02:42:05;;;;;;;38.95;20.05;;;8.20;99.90;;;;;;5079937;28;20032;-65
2023/12/15 02:44:31;;;;;;;47.60;20.23;;;8.10;99.90;;;;;;5079229;28;20040;-65
2023/12/15 02:46:56;;;;;;;42.33;20.75;;;7.90;99.90;;;;;;5079863;28;20016;-66
2023/12/15 02:49:22;;;;;;;41.95;21.02;;;8.00;99.90;;;;;;5079033;28;20044;-66
2023/12/15 02:51:48;;;;;;;45.53;21.10;;;7.90;99.90;;;;;;5079714;28;20028;-65
2023/12/15 02:54:14;;;;;;;45.42;20.40;;;7.90;99.90;;;;;;5095770;28;20113;-65
2023/12/15 02:56:39;;;;;;;43.53;20.38;;;7.80;99.90;;;;;;5078771;28;20452;-65
2023/12/15 02:59:05;;;;;;;42.88;20.95;;;7.80;99.90;;;;;;5079455;28;20036;-66
2023/12/15 03:01:31;;;;;;;51.47;20.67;;;7.80;99.90;;;;;;5079802;28;20032;-66
2023/12/15 03:03:57;;;;;;;40.65;20.30;;;8.00;99.90;;;;;;5079478;28;20032;-66
2023/12/15 03:06:23;;;;;;;43.22;22.13;;;8.10;99.90;;;;;;5079530;28;20356;-66
2023/12/15 03:08:49;;;;;;;48.50;21.67;;;8.20;99.90;;;;;;5095583;28;20104;-66
2023/12/15 03:11:14;;;;;;;41.67;21.17;;;8.10;99.90;;;;;;5078653;28;20047;-67
2023/12/15 03:13:40;;;;;;;43.05;21.55;;;8.20;99.90;;;;;;5079311;28;20033;-65
2023/12/15 03:16:10;;;;;;;44.85;22.10;;;8.20;99.90;;;;;;5079353;28;20337;-66
2023/12/15 03:18:37;;;;;;;47.08;21.60;;;8.30;99.90;;;;;;5079242;28;20036;-66
2023/12/15 03:21:04;;;;;;;44.30;22.38;;;8.30;99.90;;;;;;5079210;28;20021;-66
2023/12/15 03:23:29;;;;;;;40.63;20.85;;;8.40;99.90;;;;;;5079262;28;20024;-66
2023/12/15 03:25:56;;;;;;;46.60;22.77;;;8.50;99.90;;;;;;5079098;28;20032;-66
2023/12/15 03:28:21;;;;;;;48.05;22.10;;;8.50;99.90;;;;;;5078837;28;20110;-66
2023/12/15 03:30:47;;;;;;;52.53;23.38;;;8.60;99.90;;;;;;5078941;28;20028;-66
2023/12/15 03:33:14;;;;;;;48.95;23.33;;;8.70;99.90;;;;;;5079162;28;20151;-66
2023/12/15 03:35:40;;;;;;;55.97;24.00;;;8.80;99.90;;;;;;5078178;28;20127;-66
2023/12/15 03:38:06;;;;;;;55.10;23.17;;;8.80;99.90;;;;;;5078907;28;20339;-65
2023/12/15 03:40:32;;;;;;;49.85;23.63;;;8.80;99.90;;;;;;5078886;28;20051;-66
2023/12/15 03:42:58;;;;;;;54.58;24.80;;;8.80;99.90;;;;;;5078270;28;20029;-65
2023/12/15 03:45:25;;;;;;;52.55;25.25;;;8.80;99.90;;;;;;5079007;28;20502;-65
2023/12/15 03:47:51;;;;;;;50.85;23.13;;;8.70;99.90;;;;;;5078743;28;20384;-66
2023/12/15 03:50:17;;;;;;;45.70;22.95;;;8.70;99.90;;;;;;5077962;28;20059;-66
2023/12/15 03:52:43;;;;;;;49.47;23.50;;;8.90;99.90;;;;;;5078654;28;20035;-66
2023/12/15 03:55:09;;;;;;;51.35;25.00;;;8.80;99.90;;;;;;5078676;28;20037;-65
2023/12/15 03:57:35;;;;;;;50.05;23.90;;;8.90;99.90;;;;;;5078562;28;20035;-66
2023/12/15 04:00:01;;;;;;;48.53;23.27;;;9.10;99.90;;;;;;5078431;28;20036;-66
2023/12/15 04:02:26;;;;;;;54.28;24.98;;;9.00;99.90;;;;;;5078403;28;20043;-66
2023/12/15 04:04:52;;;;;;;56.17;24.48;;;9.10;99.90;;;;;;5094853;28;20380;-66
2023/12/15 04:07:18;;;;;;;49.25;24.45;;;9.20;99.90;;;;;;5078440;28;20092;-66
2023/12/15 04:09:44;;;;;;;49.85;23.63;;;9.20;99.90;;;;;;5078501;28;20097;-65
2023/12/15 04:12:10;;;;;;;51.65;24.40;;;9.20;99.90;;;;;;5078219;28;20126;-66
2023/12/15 04:14:35;;;;;;;51.00;23.05;;;8.90;99.90;;;;;;5078160;28;20032;-66
2023/12/15 04:17:01;;;;;;;45.97;21.80;;;8.60;99.90;;;;;;5094285;28;20028;-65
2023/12/15 04:19:27;;;;;;;43.53;22.52;;;8.40;99.90;;;;;;5094227;28;20061;-66
2023/12/15 04:21:53;;;;;;;46.53;22.52;;;8.40;99.90;;;;;;5077280;28;20035;-66
2023/12/15 04:24:18;;;;;;;42.90;22.05;;;8.40;99.90;;;;;;5077865;28;20032;-65
2023/12/15 04:26:45;;;;;;;50.88;22.60;;;8.30;99.90;;;;;;5078167;28;20250;-66
2023/12/15 04:29:10;;;;;;;52.45;22.83;;;8.20;99.90;;;;;;5077680;28;20044;-65
2023/12/15 04:31:37;;;;;;;53.22;22.73;;;8.20;99.90;;;;;;5078017;28;20028;-65
2023/12/15 04:34:02;;;;;;;49.67;23.27;;;8.40;99.90;;;;;;5077803;28;20036;-66
2023/12/15 04:36:28;;;;;;;47.35;22.73;;;8.50;99.90;;;;;;5077935;28;20075;-66
2023/12/15 04:38:54;;;;;;;53.40;22.52;;;8.40;99.90;;;;;;5077018;28;20388;-66
2023/12/15 04:41:23;;;;;;;47.58;23.30;;;8.50;99.90;;;;;;5077576;28;20066;-65
2023/12/15 04:43:50;;;;;;;52.70;23.50;;;8.50;99.90;;;;;;5077072;28;20071;-66
2023/12/15 04:46:23;;;;;;;45.20;22.52;;;8.50;99.90;;;;;;5077577;28;20021;-65
2023/12/15 04:48:49;;;;;;;53.05;23.17;;;8.50;99.90;;;;;;5093565;28;20036;-66
2023/12/15 04:51:15;;;;;;;44.63;22.77;;;8.70;99.90;;;;;;5093637;28;20039;-66
2023/12/15 04:53:41;;;;;;;57.45;23.45;;;8.70;99.90;;;;;;5075899;28;20123;-65
2023/12/15 04:56:07;;;;;;;50.92;23.88;;;8.60;99.90;;;;;;5077450;28;20029;-65
2023/12/15 04:58:35;;;;;;;42.88;22.45;;;8.60;99.90;;;;;;5077511;28;20178;-66
2023/12/15 05:01:01;;;;;;;45.38;24.02;;;8.60;99.90;;;;;;5077207;28;20300;-66
2023/12/15 05:03:27;;;;;;;48.95;23.60;;;8.60;99.90;;;;;;5093611;28;20025;-65
2023/12/15 05:05:53;;;;;;;43.00;22.63;;;8.50;99.90;;;;;;5077453;28;20025;-66
2023/12/15 05:08:19;;;;;;;50.40;23.95;;;8.50;99.90;;;;;;5093375;28;20039;-65
2023/12/15 05:10:45;;;;;;;51.45;24.30;;;8.60;99.90;;;;;;5077229;28;20040;-65
2023/12/15 05:13:11;;;;;;;50.25;24.08;;;8.70;99.90;;;;;;5077189;28;20032;-65
2023/12/15 05:15:37;;;;;;;49.28;24.02;;;8.80;99.90;;;;;;5077317;28;20040;-65
2023/12/15 05:18:03;;;;;;;45.42;23.25;;;8.80;99.90;;;;;;5077206;28;20336;-66
2023/12/15 05:20:30;;;;;;;46.00;22.73;;;9.00;99.90;;;;;;5077038;28;20396;-66
2023/12/15 05:22:56;;;;;;;63.90;26.35;;;8.90;99.90;;;;;;5093123;28;20036;-66
2023/12/15 05:25:22;;;;;;;48.75;24.02;;;9.00;99.90;;;;;;5076475;28;20375;-65
2023/12/15 05:27:48;;;;;;;58.17;26.13;;;9.00;99.90;;;;;;5076908;28;20085;-66
2023/12/15 05:30:14;;;;;;;58.45;25.23;;;9.00;99.90;;;;;;5076756;28;20056;-66
2023/12/15 05:32:40;;;;;;;56.92;24.98;;;8.80;99.90;;;;;;5076909;28;20037;-66
2023/12/15 05:35:06;;;;;;;47.40;24.75;;;8.80;99.90;;;;;;5076890;28;20033;-66
2023/12/15 05:37:31;;;;;;;53.45;24.20;;;8.90;99.90;;;;;;5077060;28;20111;-66
2023/12/15 05:39:57;;;;;;;55.22;24.92;;;9.00;99.90;;;;;;5075994;28;20289;-65
2023/12/15 05:42:24;;;;;;;55.83;25.50;;;9.00;99.90;;;;;;5077039;28;20067;-66
2023/12/15 05:44:51;;;;;;;50.60;25.27;;;9.10;99.90;;;;;;5076874;28;20119;-65
2023/12/15 05:47:17;;;;;;;49.60;25.63;;;9.10;99.90;;;;;;5077024;28;20410;-65
2023/12/15 05:49:43;;;;;;;45.50;24.83;;;9.10;99.90;;;;;;5059317;28;20091;-66
2023/12/15 05:52:09;;;;;;;50.38;25.65;;;9.10;99.90;;;;;;5076051;28;20029;-65
2023/12/15 05:54:39;;;;;;;51.92;24.48;;;9.00;99.90;;;;;;5075895;28;20043;-66
2023/12/15 05:57:05;;;;;;;54.28;26.55;;;9.10;99.90;;;;;;5076637;28;20036;-65
2023/12/15 05:59:31;;;;;;;48.90;24.55;;;9.10;99.90;;;;;;5076598;28;20028;-65
2023/12/15 06:01:56;;;;;;;47.33;24.75;;;9.10;99.90;;;;;;5092629;28;20115;-65
2023/12/15 06:04:22;;;;;;;46.30;23.55;;;9.00;99.90;;;;;;5076843;28;20021;-66
2023/12/15 06:06:48;;;;;;;49.28;23.77;;;9.00;99.90;;;;;;5080605;28;20285;-66
2023/12/15 06:09:14;;;;;;;53.22;24.73;;;9.00;99.90;;;;;;5079440;28;20426;-66
2023/12/15 06:11:41;;;;;;;47.58;23.48;;;8.90;99.90;;;;;;5080560;28;20075;-65
2023/12/15 06:14:07;;;;;;;48.50;23.80;;;8.70;99.90;;;;;;5080402;28;20039;-64
2023/12/15 06:16:33;;;;;;;49.53;24.13;;;8.60;99.90;;;;;;5080370;28;20062;-65
2023/12/15 06:18:59;;;;;;;55.65;25.05;;;8.60;99.90;;;;;;5080218;28;20070;-65
2023/12/15 06:21:26;;;;;;;44.42;23.33;;;8.50;99.90;;;;;;5079362;28;20066;-65
2023/12/15 06:23:52;;;;;;;47.05;24.08;;;8.40;99.90;;;;;;5079393;28;20342;-66
2023/12/15 06:26:23;;;;;;;47.53;23.63;;;8.30;99.90;;;;;;5096065;28;20033;-65
2023/12/15 06:28:49;;;;;;;51.38;23.67;;;8.30;99.90;;;;;;5079942;28;20044;-64
2023/12/15 06:31:16;;;;;;;45.38;23.58;;;8.30;99.90;;;;;;5096275;28;20273;-65
2023/12/15 06:33:42;;;;;;;45.78;22.73;;;8.30;99.90;;;;;;5079999;28;20039;-65
2023/12/15 06:36:09;;;;;;;54.35;24.83;;;8.40;99.90;;;;;;5079883;28;20025;-66
2023/12/15 06:38:44;;;;;;;45.13;22.80;;;8.40;99.90;;;;;;5080100;28;20036;-65
2023/12/15 06:41:11;;;;;;;46.67;23.52;;;8.60;99.90;;;;;;5079809;28;20273;-65
2023/12/15 06:43:44;;;;;;;49.17;23.23;;;8.70;99.90;;;;;;5079850;28;20385;-65
2023/12/15 06:46:11;;;;;;;46.55;22.60;;;8.70;99.90;;;;;;5079546;28;20033;-66
2023/12/15 06:48:37;;;;;;;48.08;22.42;;;8.70;99.90;;;;;;5079583;28;20164;-65
2023/12/15 06:51:04;;;;;;;51.40;23.27;;;8.80;99.90;;;;;;5079630;28;20062;-65
2023/12/15 06:53:30;;;;;;;45.30;22.13;;;8.80;99.90;;;;;;5079655;28;20032;-65
2023/12/15 06:55:58;;;;;;;44.13;22.25;;;8.70;99.90;;;;;;5079228;28;20038;-64
2023/12/15 06:58:24;;;;;;;36.95;21.35;;;8.70;99.90;;;;;;5079512;28;20300;-65
2023/12/15 07:00:50;;;;;;;44.70;22.38;;;8.90;99.90;;;;;;5079569;28;20032;-65
2023/12/15 07:03:16;;;;;;;39.13;20.98;;;9.00;99.90;;;;;;5079431;28;20086;-66
2023/12/15 07:05:42;;;;;;;45.80;23.63;;;9.00;99.90;;;;;;5079422;28;20025;-65
2023/12/15 07:08:08;;;;;;;42.30;21.83;;;9.10;99.90;;;;;;5095582;28;20042;-66
2023/12/15 07:10:34;;;;;;;47.40;21.67;;;9.10;99.90;;;;;;5079395;28;20052;-65
2023/12/15 07:12:59;;;;;;;38.65;20.55;;;9.10;99.90;;;;;;5079306;28;20333;-65
2023/12/15 07:15:27;;;;;;;38.42;20.05;;;9.10;99.90;;;;;;5079420;28;20059;-65
2023/12/15 07:17:54;;;;;;;38.40;19.55;;;9.10;99.90;;;;;;5078363;28;20123;-65
2023/12/15 07:20:21;;;;;;;36.67;19.52;;;9.20;99.90;;;;;;5079075;28;20036;-64
2023/12/15 07:22:47;;;;;;;41.72;19.10;;;9.20;99.90;;;;;;5079117;28;20346;-64
2023/12/15 07:25:13;;;;;;;32.13;16.88;;;9.20;99.90;;;;;;5078235;28;20273;-60
2023/12/15 07:27:38;;;;;;;33.67;17.55;;;9.20;99.90;;;;;;5078998;28;20039;-65
2023/12/15 07:30:05;;;;;;;32.20;16.30;;;9.50;99.90;;;;;;5095169;28;20048;-64
2023/12/15 07:32:31;;;;;;;30.60;16.60;;;9.40;99.90;;;;;;5095102;28;20044;-65
2023/12/15 07:34:58;;;;;;;35.75;17.15;;;9.30;99.90;;;;;;5078937;28;20048;-65
2023/12/15 07:37:23;;;;;;;32.50;16.45;;;9.50;99.90;;;;;;5078824;28;20103;-65
2023/12/15 07:39:49;;;;;;;31.60;15.52;;;9.50;99.90;;;;;;5078955;28;20139;-64
2023/12/15 07:42:15;;;;;;;31.52;15.32;;;9.50;99.90;;;;;;5078829;28;20074;-64
2023/12/15 07:44:41;;;;;;;28.55;15.27;;;9.40;99.90;;;;;;5078537;28;20080;-64
2023/12/15 07:47:06;;;;;;;29.60;16.40;;;9.30;99.90;;;;;;5094717;28;20060;-64
2023/12/15 07:49:34;;;;;;;30.38;15.48;;;9.40;99.90;;;;;;5078666;28;20415;-63
2023/12/15 07:52:00;;;;;;;35.75;15.50;;;9.30;99.90;;;;;;5077791;28;20036;-63
2023/12/15 07:54:27;;;;;;;29.88;14.40;;;9.20;99.90;;;;;;5078633;28;20346;-65
2023/12/15 07:56:52;;;;;;;28.38;14.65;;;9.20;99.90;;;;;;5078616;28;20032;-64
2023/12/15 07:59:18;;;;;;;31.20;15.13;;;9.30;99.90;;;;;;5078347;28;20119;-64
2023/12/15 08:01:51;;;;;;;29.95;14.68;;;9.30;99.90;;;;;;5078447;28;20116;-64
2023/12/15 08:04:18;;;;;;;22.38;13.88;;;9.30;99.90;;;;;;5078366;28;20115;-64
2023/12/15 08:06:44;;;;;;;23.90;13.90;;;9.40;99.90;;;;;;5078334;28;20120;-64
2023/12/15 08:09:10;;;;;;;25.73;13.52;;;9.50;99.90;;;;;;5078220;28;20074;-65
2023/12/15 08:11:35;;;;;;;25.67;13.88;;;9.40;99.90;;;;;;5077979;28;20434;-64
2023/12/15 08:14:04;;;;;;;28.67;13.75;;;9.40;99.90;;;;;;5078205;28;20451;-64
2023/12/15 08:16:30;;;;;;;23.38;12.63;;;9.40;99.90;;;;;;5078314;28;20332;-64
2023/12/15 08:18:57;;;;;;;27.08;12.88;;;9.40;99.90;;;;;;5077982;28;20048;-64
2023/12/15 08:21:23;;;;;;;30.48;13.15;;;9.20;99.90;;;;;;5077946;28;20039;-65
2023/12/15 08:23:49;;;;;;;28.85;12.73;;;9.10;99.90;;;;;;5078111;28;20323;-64
2023/12/15 08:26:23;;;;;;;25.00;12.80;;;9.10;99.90;;;;;;5077199;28;20033;-64
2023/12/15 08:28:50;;;;;;;27.80;11.88;;;9.30;99.90;;;;;;5077777;28;20049;-64
2023/12/15 08:31:16;;;;;;;31.35;12.68;;;9.40;99.90;;;;;;5077026;28;20029;-65
2023/12/15 08:33:42;;;;;;;20.58;11.45;;;9.40;99.90;;;;;;5077955;28;20029;-64
2023/12/15 08:36:09;;;;;;;24.30;11.77;;;9.30;99.90;;;;;;5077904;28;20055;-65
2023/12/15 08:38:35;;;;;;;23.38;11.38;;;9.50;99.90;;;;;;5077762;28;20033;-65
2023/12/15 08:41:02;;;;;;;28.40;11.60;;;9.60;99.90;;;;;;5077673;28;20024;-64
2023/12/15 08:43:28;;;;;;;26.38;11.68;;;9.60;99.90;;;;;;5093701;28;20028;-65
2023/12/15 08:45:54;;;;;;;22.45;11.32;;;9.70;99.90;;;;;;5077939;28;20292;-63
2023/12/15 08:48:20;;;;;;;21.67;11.65;;;9.60;99.90;;;;;;5077472;28;20095;-64
2023/12/15 08:50:46;;;;;;;20.75;11.32;;;9.40;99.90;;;;;;5077489;28;20387;-63
2023/12/15 08:53:16;;;;;;;17.20;10.75;;;9.40;99.90;;;;;;5077382;28;20064;-64
2023/12/15 08:55:42;;;;;;;22.42;10.50;;;9.30;99.90;;;;;;5077652;28;20064;-66
2023/12/15 08:58:09;;;;;;;19.33;9.93;;;9.30;99.90;;;;;;5077309;28;20426;-64
2023/12/15 09:00:36;;;;;;;21.67;10.27;;;9.40;99.90;;;;;;5077317;28;20056;-63
2023/12/15 09:03:02;;;;;;;18.65;10.55;;;9.60;99.90;;;;;;5077223;28;20052;-64
2023/12/15 09:05:28;;;;;;;19.42;10.43;;;9.70;99.90;;;;;;5077570;28;20276;-64
2023/12/15 09:07:54;;;;;;;21.08;9.98;;;9.80;99.90;;;;;;5077217;28;20340;-65
2023/12/15 09:10:21;;;;;;;23.10;10.32;;;9.90;99.90;;;;;;5077156;28;20041;-63
2023/12/15 09:12:47;;;;;;;25.20;11.00;;;9.90;99.90;;;;;;5077119;28;20417;-64
2023/12/15 09:15:13;;;;;;;21.13;10.55;;;9.90;99.90;;;;;;5076567;28;20303;-63
2023/12/15 09:17:42;;;;;;;21.48;10.32;;;9.90;99.90;;;;;;5077021;28;20093;-63
2023/12/15 09:20:10;;;;;;;24.73;10.07;;;9.70;99.90;;;;;;5076092;28;20036;-63
2023/12/15 09:22:36;;;;;;;22.10;9.35;;;9.70;99.90;;;;;;5076081;28;20055;-64
2023/12/15 09:25:02;;;;;;;21.40;8.82;;;9.70;99.90;;;;;;5077006;28;20021;-63
2023/12/15 09:27:28;;;;;;;20.00;8.75;;;9.70;99.90;;;;;;5077014;28;20111;-63
2023/12/15 09:29:54;;;;;;;21.02;9.00;;;9.70;99.90;;;;;;5076832;28;20048;-64
2023/12/15 09:32:20;;;;;;;20.65;8.35;;;9.70;99.90;;;;;;5076870;28;20046;-63
2023/12/15 09:34:46;;;;;;;20.27;9.15;;;9.90;99.90;;;;;;5076875;28;20039;-63
2023/12/15 09:37:13;;;;;;;22.25;8.32;;;10.20;99.90;;;;;;5076879;28;20032;-63
2023/12/15 09:39:39;;;;;;;15.98;7.90;;;10.30;99.90;;;;;;5075598;28;20055;-64
2023/12/15 09:42:05;;;;;;;17.83;8.13;;;10.50;99.90;;;;;;5076716;28;20024;-63
2023/12/15 09:44:31;;;;;;;16.83;7.55;;;10.70;99.90;;;;;;5076684;28;20303;-63
2023/12/15 09:46:58;;;;;;;21.13;7.57;;;10.70;99.90;;;;;;5077089;28;20040;-63
2023/12/15 09:49:25;;;;;;;14.05;6.65;;;10.60;99.90;;;;;;5076665;28;20029;-63
2023/12/15 09:51:51;;;;;;;14.05;7.18;;;10.50;99.90;;;;;;5076751;28;20036;-65
2023/12/15 09:54:19;;;;;;;15.57;6.63;;;10.50;99.90;;;;;;5075964;28;20040;-63
2023/12/15 09:56:46;;;;;;;15.45;6.45;;;10.60;99.90;;;;;;5076894;28;20304;-63
2023/12/15 09:59:12;;;;;;;13.57;5.50;;;10.70;99.90;;;;;;5076633;28;20403;-64
2023/12/15 10:01:38;;;;;;;12.48;4.90;;;10.70;99.90;;;;;;5076601;28;20114;-64
2023/12/15 10:04:05;;;;;;;14.23;5.20;;;10.60;97.60;;;;;;5076512;28;20384;-63
2023/12/15 10:06:38;;;;;;;20.88;5.60;;;10.80;94.70;;;;;;5076890;28;20384;-63
2023/12/15 10:09:13;;;;;;;11.13;4.60;;;10.80;89.60;;;;;;5076459;28;20025;-63
2023/12/15 10:11:39;;;;;;;16.65;4.82;;;10.70;80.70;;;;;;5092289;28;20407;-64
2023/12/15 10:14:07;;;;;;;13.15;4.32;;;10.90;62.80;;;;;;5075594;28;20040;-60
2023/12/15 10:16:37;;;;;;;12.80;4.63;;;10.90;75.00;;;;;;5076526;28;20039;-64
2023/12/15 10:19:04;;;;;;;19.35;5.57;;;10.90;68.00;;;;;;5076436;28;20032;-65
2023/12/15 10:21:32;;;;;;;13.70;4.65;;;11.00;65.30;;;;;;5076381;28;20097;-64
2023/12/15 10:23:59;;;;;;;11.30;4.63;;;11.10;53.60;;;;;;5076346;28;20380;-65
2023/12/15 10:26:27;;;;;;;11.90;4.40;;;11.10;58.00;;;;;;5075624;28;20040;-65
2023/12/15 10:28:56;;;;;;;14.27;4.57;;;11.20;50.40;;;;;;5075537;28;20049;-64
2023/12/15 10:31:26;;;;;;;16.42;5.00;;;11.20;29.00;;;;;;5076294;28;20036;-66
2023/12/15 10:33:51;;;;;;;16.42;3.78;;;11.20;32.00;;;;;;5075690;28;20053;-65
2023/12/15 10:36:18;;;;;;;13.73;3.80;;;11.30;28.00;;;;;;5076312;28;20036;-64
2023/12/15 10:38:44;;;;;;;16.83;4.03;;;11.20;29.80;;;;;;5076259;28;20055;-64
2023/12/15 10:41:12;;;;;;;13.93;4.20;;;11.20;29.90;;;;;;5076116;28;20123;-65
2023/12/15 10:43:39;;;;;;;16.67;4.30;;;11.30;19.40;;;;;;5076294;28;20033;-64
2023/12/15 10:46:08;;;;;;;12.93;3.90;;;11.40;20.00;;;;;;5076227;28;20082;-65
2023/12/15 10:48:37;;;;;;;10.60;3.83;;;11.30;1.00;;;;;;5076312;28;20281;-65
2023/12/15 10:51:04;;;;;;;18.08;4.15;;;11.10;16.80;;;;;;5075480;28;20046;-64
2023/12/15 10:53:32;;;;;;;15.65;4.25;;;11.20;1.00;;;;;;5079709;28;20043;-65
2023/12/15 10:55:57;;;;;;;11.20;3.65;;;11.10;1.00;;;;;;5079660;28;20066;-63
2023/12/15 10:58:23;;;;;;;15.85;4.03;;;11.10;1.00;;;;;;5079154;28;20121;-63
2023/12/15 11:00:49;;;;;;;14.43;3.70;;;11.10;1.00;;;;;;5079474;28;20047;-65
2023/12/15 11:03:15;;;;;;;14.30;4.03;;;11.30;1.00;;;;;;5078685;28;20455;-65
2023/12/15 11:05:41;;;;;;;14.93;3.65;;;11.30;1.00;;;;;;5079574;28;20289;-66
2023/12/15 11:08:08;;;;;;;14.18;3.65;;;11.20;1.00;;;;;;5079458;28;20234;-64
2023/12/15 11:10:35;;;;;;;11.13;3.20;;;11.10;1.00;;;;;;5079546;28;20064;-64
2023/12/15 11:13:01;;;;;;;15.25;3.40;;;11.10;1.00;;;;;;5079282;28;20032;-65
2023/12/15 11:15:27;;;;;;;12.18;3.38;;;11.10;1.00;;;;;;5079398;28;20043;-65
2023/12/15 11:17:59;;;;;;;12.35;3.30;;;11.10;1.00;;;;;;5095416;28;20078;-63
2023/12/15 11:20:25;;;;;;;12.27;2.92;;;11.20;1.00;;;;;;5079210;28;20024;-64
2023/12/15 11:22:53;;;;;;;10.43;3.28;;;11.20;1.00;;;;;;5079205;28;20032;-64
2023/12/15 11:25:20;;;;;;;10.20;2.78;;;11.30;1.00;;;;;;5079216;28;20035;-65
2023/12/15 11:28:08;;;;;;;8.73;3.00;;;11.10;1.00;;;;;;5079097;28;20040;-64
2023/12/15 11:30:40;;;;;;;11.02;2.53;;;11.20;1.00;;;;;;5079200;28;20386;-64
2023/12/15 11:33:26;;;;;;;13.07;3.80;;;11.30;1.00;;;;;;5079031;28;20037;-65
2023/12/15 11:36:02;;;;;;;12.50;2.90;;;11.20;1.00;;;;;;5071253;28;20101;-65
2023/12/15 11:38:29;;;;;;;9.25;2.25;;;11.20;1.00;;;;;;5078864;28;20044;-65
2023/12/15 11:40:56;;;;;;;8.10;2.38;;;11.30;1.00;;;;;;5078914;28;20107;-65
2023/12/15 11:43:25;;;;;;;6.00;2.45;;;11.30;1.00;;;;;;5079272;28;20333;-64
2023/12/15 11:45:54;;;;;;;8.05;2.70;;;11.30;1.00;;;;;;5061323;28;20025;-65
2023/12/15 11:48:24;;;;;;;10.30;2.95;;;11.40;1.00;;;;;;5078674;28;20063;-67
2023/12/15 11:50:50;;;;;;;9.57;2.88;;;11.60;1.00;;;;;;5078838;28;20032;-66
2023/12/15 11:53:18;;;;;;;14.52;3.63;;;11.40;1.00;;;;;;5077832;28;20035;-65
2023/12/15 11:55:45;;;;;;;10.82;3.25;;;11.50;1.00;;;;;;5078591;28;20093;-66
2023/12/15 11:58:14;;;;;;;15.48;3.40;;;11.30;1.00;;;;;;5077723;28;20024;-65
2023/12/15 12:00:44;;;;;;;12.77;3.80;;;11.10;1.00;;;;;;5078448;28;20093;-66
2023/12/15 12:03:16;;;;;;;15.60;3.92;;;11.20;1.00;;;;;;5078026;28;20328;-65
2023/12/15 12:05:45;;;;;;;15.10;3.75;;;11.40;1.00;;;;;;5078402;28;20410;-66
2023/12/15 12:08:11;;;;;;;11.82;3.40;;;11.30;1.00;;;;;;5078248;28;20380;-66
2023/12/15 12:10:42;;;;;;;12.45;3.50;;;11.50;1.00;;;;;;5078276;28;20042;-66
2023/12/15 12:13:10;;;;;;;12.57;3.00;;;11.70;1.00;;;;;;5078288;28;20043;-65
2023/12/15 12:15:53;;;;;;;12.45;3.15;;;11.60;1.00;;;;;;5078205;28;20361;-66
2023/12/15 12:18:20;;;;;;;16.50;3.50;;;11.70;1.00;;;;;;5078123;28;20044;-66
2023/12/15 12:20:46;;;;;;;10.40;2.78;;;11.70;1.00;;;;;;5078055;28;20119;-66
2023/12/15 12:23:12;;;;;;;14.70;3.28;;;11.50;1.00;;;;;;5078127;28;20021;-65
2023/12/15 12:25:44;;;;;;;10.35;2.88;;;11.20;1.00;;;;;;5078052;28;20348;-65
2023/12/15 12:28:12;;;;;;;9.73;2.63;;;11.00;1.00;;;;;;5077805;28;20097;-66
2023/12/15 12:30:37;;;;;;;11.68;2.90;;;11.10;1.00;;;;;;5077109;28;20278;-65
2023/12/15 12:33:03;;;;;;;11.50;3.30;;;11.30;1.00;;;;;;5077600;28;20038;-66
2023/12/15 12:35:29;;;;;;;10.95;3.00;;;11.20;1.00;;;;;;5077740;28;20024;-66